createdAt,value
2023-10-23T00:00:59.747Z,101212.53
2023-10-23T00:03:30.233Z,101215.91
2023-10-23T00:06:00.186Z,101215.91
2023-10-23T00:08:30.407Z,101217.13
2023-10-23T00:11:00.513Z,101228.75
2023-10-23T00:13:30.786Z,101232.50
2023-10-23T00:16:00.975Z,101234.56
2023-10-23T00:18:30.849Z,101222.91
2023-10-23T00:21:01.166Z,101222.09
2023-10-23T00:23:31.087Z,101224.78
2023-10-23T00:26:04.152Z,101225.81
2023-10-23T00:28:34.669Z,101219.38
2023-10-23T00:31:04.900Z,101217.94
2023-10-23T00:33:38.988Z,101222.16
2023-10-23T00:36:09.261Z,101215.13
2023-10-23T00:38:39.576Z,101213.06
2023-10-23T00:41:11.716Z,101218.06
2023-10-23T00:43:44.973Z,101228.44
2023-10-23T00:46:25.059Z,101225.53
2023-10-23T00:48:55.719Z,101231.38
2023-10-23T00:51:25.715Z,101221.00
2023-10-23T00:53:56.811Z,101226.00
2023-10-23T00:56:26.863Z,101217.50
2023-10-23T00:58:56.939Z,101218.97
2023-10-23T01:01:34.043Z,101227.47
2023-10-23T01:04:06.615Z,101227.31
2023-10-23T01:06:36.899Z,101210.66
2023-10-23T01:09:07.830Z,101219.41
2023-10-23T01:11:43.350Z,101217.34
2023-10-23T01:14:13.690Z,101219.00
2023-10-23T01:16:44.015Z,101217.56
2023-10-23T01:19:17.154Z,101223.59
2023-10-23T01:21:50.103Z,101225.25
2023-10-23T01:24:23.644Z,101224.00
2023-10-23T01:26:54.029Z,101227.34
2023-10-23T01:29:24.414Z,101226.16
2023-10-23T01:31:54.485Z,101224.09
2023-10-23T01:34:27.976Z,101231.97
2023-10-23T01:37:00.788Z,101236.38
2023-10-23T01:39:31.146Z,101236.97
2023-10-23T01:42:03.534Z,101244.91
2023-10-23T01:44:33.903Z,101245.53
2023-10-23T01:47:04.018Z,101248.00
2023-10-23T01:49:37.077Z,101248.66
2023-10-23T01:52:07.246Z,101245.75
2023-10-23T01:54:37.320Z,101250.13
2023-10-23T01:57:10.107Z,101255.13
2023-10-23T01:59:40.558Z,101252.22
2023-10-23T02:02:10.666Z,101252.00
2023-10-23T02:04:43.417Z,101249.94
2023-10-23T02:07:13.686Z,101248.69
2023-10-23T02:09:43.679Z,101246.63
2023-10-23T02:12:19.542Z,101238.28
2023-10-23T02:14:52.757Z,101240.56
2023-10-23T02:17:28.978Z,101242.03
2023-10-23T02:20:07.459Z,101233.75
2023-10-23T02:22:40.414Z,101231.63
2023-10-23T02:25:13.948Z,101231.22
2023-10-23T02:27:44.361Z,101231.84
2023-10-23T02:30:17.407Z,101232.50
2023-10-23T02:32:47.920Z,101230.41
2023-10-23T02:35:17.887Z,101226.47
2023-10-23T02:37:52.048Z,101218.94
2023-10-23T02:40:22.365Z,101232.06
2023-10-23T02:42:54.637Z,101227.31
2023-10-23T02:45:27.697Z,101233.13
2023-10-23T02:48:00.920Z,101221.28
2023-10-23T02:50:31.260Z,101220.88
2023-10-23T02:53:08.556Z,101218.81
2023-10-23T02:55:38.793Z,101229.22
2023-10-23T02:58:11.535Z,101212.53
2023-10-23T03:00:54.079Z,101196.94
2023-10-23T03:03:27.931Z,101201.94
2023-10-23T03:05:58.308Z,101192.56
2023-10-23T03:08:28.247Z,101186.72
2023-10-23T03:10:58.431Z,101188.19
2023-10-23T03:13:28.435Z,101185.03
2023-10-23T03:16:17.166Z,101184.63
2023-10-23T03:18:50.235Z,101189.63
2023-10-23T03:21:22.455Z,101182.13
2023-10-23T03:26:40.803Z,101187.50
2023-10-23T03:29:11.125Z,101182.50
2023-10-23T03:31:41.180Z,101182.28
2023-10-23T03:34:14.750Z,101179.34
2023-10-23T03:36:47.329Z,101177.94
2023-10-23T03:39:17.334Z,101164.16
2023-10-23T03:41:56.542Z,101167.28
2023-10-23T03:44:28.719Z,101167.06
2023-10-23T03:46:59.204Z,101161.22
2023-10-23T03:49:44.053Z,101142.88
2023-10-23T03:52:17.260Z,101145.38
2023-10-23T03:54:57.953Z,101150.38
2023-10-23T03:57:31.182Z,101135.78
2023-10-23T04:00:04.611Z,101133.69
2023-10-23T04:02:45.072Z,101131.59
2023-10-23T04:05:15.340Z,101126.78
2023-10-23T04:07:45.342Z,101120.34
2023-10-23T04:10:16.415Z,101117.19
2023-10-23T04:12:46.677Z,101111.53
2023-10-23T04:15:19.722Z,101104.03
2023-10-23T04:17:50.115Z,101103.81
2023-10-23T04:20:23.782Z,101100.06
2023-10-23T04:22:54.016Z,101088.16
2023-10-23T04:25:23.971Z,101088.59
2023-10-23T04:27:54.339Z,101084.00
2023-10-23T04:30:27.002Z,101079.38
2023-10-23T04:33:27.316Z,101077.31
2023-10-23T04:36:01.763Z,101077.91
2023-10-23T04:38:33.416Z,101074.97
2023-10-23T04:41:03.654Z,101063.06
2023-10-23T04:43:35.593Z,101071.00
2023-10-23T04:46:08.569Z,101073.50
2023-10-23T04:48:41.840Z,101076.81
2023-10-23T04:51:15.361Z,101065.97
2023-10-23T04:53:51.382Z,101053.03
2023-10-23T04:56:21.563Z,101060.97
2023-10-23T04:58:54.933Z,101049.25
2023-10-23T05:01:30.955Z,101040.09
2023-10-23T05:04:04.963Z,101027.16
2023-10-23T05:06:38.632Z,101025.53
2023-10-23T05:09:09.168Z,101008.19
2023-10-23T05:11:39.153Z,101007.16
2023-10-23T05:14:09.683Z,100991.72
2023-10-23T05:16:39.847Z,100942.91
2023-10-23T05:19:12.809Z,100979.00
2023-10-23T05:21:43.089Z,100973.56
2023-10-23T05:24:16.453Z,100962.72
2023-10-23T05:26:46.599Z,100958.97
2023-10-23T05:29:19.669Z,100954.59
2023-10-23T05:31:49.916Z,100943.75
2023-10-23T05:34:28.829Z,100932.09
2023-10-23T05:36:59.148Z,100918.31
2023-10-23T05:39:51.958Z,100923.75
2023-10-23T05:42:22.376Z,100909.34
2023-10-23T05:47:45.809Z,100902.06
2023-10-23T05:50:19.389Z,100898.50
2023-10-23T05:52:52.339Z,100894.97
2023-10-23T05:55:23.243Z,100878.69
2023-10-23T05:57:54.668Z,100871.38
2023-10-23T06:00:29.121Z,100868.69
2023-10-23T06:02:59.497Z,100859.72
2023-10-23T06:05:29.523Z,100857.00
2023-10-23T06:07:59.705Z,100853.28
2023-10-23T06:10:33.123Z,100865.75
2023-10-23T06:13:17.292Z,100871.38
2023-10-23T06:15:47.897Z,100860.34
2023-10-23T06:18:38.892Z,100844.06
2023-10-23T06:21:11.918Z,100846.56
2023-10-23T06:24:01.972Z,100849.03
2023-10-23T06:26:38.108Z,100849.66
2023-10-23T06:29:11.188Z,100843.16
2023-10-23T06:31:44.238Z,100830.22
2023-10-23T06:34:25.848Z,100811.25
2023-10-23T06:36:59.109Z,100801.84
2023-10-23T06:39:29.314Z,100776.38
2023-10-23T06:41:59.691Z,100765.31
2023-10-23T06:44:35.064Z,100776.72
2023-10-23T06:47:08.230Z,100775.69
2023-10-23T06:49:41.300Z,100770.88
2023-10-23T06:52:15.596Z,100753.53
2023-10-23T06:54:56.157Z,100758.72
2023-10-23T06:57:26.539Z,100768.28
2023-10-23T07:00:02.207Z,100765.38
2023-10-23T07:02:32.548Z,100761.59
2023-10-23T07:05:23.667Z,100754.88
2023-10-23T07:07:54.058Z,100759.47
2023-10-23T07:10:26.567Z,100769.03
2023-10-23T07:13:18.899Z,100768.59
2023-10-23T07:15:55.916Z,100770.22
2023-10-23T07:18:26.387Z,100768.13
2023-10-23T07:21:05.498Z,100761.88
2023-10-23T07:23:35.861Z,100758.94
2023-10-23T07:26:18.810Z,100764.94
2023-10-23T07:28:49.928Z,100775.78
2023-10-23T07:31:25.843Z,100772.03
2023-10-23T07:33:56.524Z,100775.34
2023-10-23T07:36:26.939Z,100770.50
2023-10-23T07:38:57.210Z,100775.94
2023-10-23T07:41:47.320Z,100774.28
2023-10-23T07:44:18.388Z,100783.00
2023-10-23T07:46:48.973Z,100787.41
2023-10-23T07:49:19.386Z,100798.25
2023-10-23T07:51:55.469Z,100799.91
2023-10-23T07:54:26.169Z,100795.53
2023-10-23T07:56:59.836Z,100796.34
2023-10-23T07:59:33.521Z,100798.00
2023-10-23T08:02:03.918Z,100815.94
2023-10-23T08:04:40.065Z,100836.84
2023-10-23T08:07:16.425Z,100834.13
2023-10-23T08:09:46.758Z,100831.41
2023-10-23T08:12:16.745Z,100840.59
2023-10-23T08:14:47.006Z,100846.00
2023-10-23T08:17:24.489Z,100856.84
2023-10-23T08:20:07.751Z,100855.22
2023-10-23T08:22:38.123Z,100853.53
2023-10-23T08:25:08.912Z,100831.00
2023-10-23T08:27:42.178Z,100823.94
2023-10-23T08:30:12.878Z,100845.03
2023-10-23T08:32:52.408Z,100858.84
2023-10-23T08:35:24.515Z,100891.41
2023-10-23T08:37:58.158Z,100908.94
2023-10-23T08:40:31.528Z,100928.75
2023-10-23T08:43:02.995Z,100941.69
2023-10-23T08:45:33.749Z,100964.47
2023-10-23T08:48:04.289Z,100969.28
2023-10-23T08:50:34.921Z,100976.81
2023-10-23T08:53:17.086Z,100978.94
2023-10-23T08:55:47.659Z,100978.31
2023-10-23T08:58:18.682Z,100982.31
2023-10-23T09:00:49.120Z,100965.41
2023-10-23T09:04:04.643Z,100971.28
2023-10-23T09:06:24.474Z,100969.84
2023-10-23T09:08:54.787Z,100969.25
2023-10-23T09:11:48.094Z,100970.75
2023-10-23T09:14:26.111Z,100976.63
2023-10-23T09:17:00.299Z,100972.47
2023-10-23T09:19:39.241Z,100968.91
2023-10-23T09:22:13.166Z,100961.50
2023-10-23T09:24:43.667Z,100963.28
2023-10-23T09:27:16.380Z,100965.72
2023-10-23T09:29:46.653Z,100961.06
2023-10-23T09:32:16.967Z,100960.66
2023-10-23T09:34:47.075Z,100968.78
2023-10-23T09:37:17.327Z,100974.22
2023-10-23T09:39:50.295Z,100981.47
2023-10-23T09:42:20.475Z,100978.19
2023-10-23T09:45:01.213Z,100976.50
2023-10-23T09:47:32.158Z,100983.19
2023-10-23T09:50:04.978Z,100979.91
2023-10-23T09:52:36.518Z,100980.34
2023-10-23T09:55:12.085Z,100989.50
2023-10-23T09:57:53.042Z,101000.75
2023-10-23T10:00:28.608Z,101001.19
2023-10-23T10:03:06.743Z,100995.41
2023-10-23T10:05:37.165Z,100986.84
2023-10-23T10:08:10.796Z,100998.13
2023-10-23T10:10:44.256Z,100996.66
2023-10-23T10:13:14.584Z,100997.09
2023-10-23T10:15:48.603Z,101002.94
2023-10-23T10:18:19.011Z,100999.84
2023-10-23T10:20:50.844Z,101001.94
2023-10-23T10:23:21.914Z,101011.31
2023-10-23T10:25:52.603Z,101019.03
2023-10-23T10:28:29.086Z,101022.19
2023-10-23T10:30:59.577Z,101039.69
2023-10-23T10:34:27.332Z,101050.13
2023-10-23T10:36:45.238Z,101043.44
2023-10-23T10:39:19.557Z,101046.38
2023-10-23T10:41:49.909Z,101046.81
2023-10-23T10:44:24.946Z,101063.25
2023-10-23T10:46:56.789Z,101061.59
2023-10-23T10:49:34.036Z,101059.28
2023-10-23T10:52:17.901Z,101013.16
2023-10-23T10:54:48.062Z,101049.56
2023-10-23T10:57:21.836Z,101042.25
2023-10-23T10:59:58.475Z,101051.84
2023-10-23T11:02:28.887Z,101057.69
2023-10-23T11:04:59.092Z,101043.72
2023-10-23T11:07:30.022Z,101035.84
2023-10-23T11:10:00.195Z,101030.44
2023-10-23T11:12:30.481Z,101017.34
2023-10-23T11:15:01.598Z,101024.00
2023-10-23T11:17:35.206Z,101016.72
2023-10-23T11:20:15.614Z,101018.78
2023-10-23T11:22:46.635Z,101006.94
2023-10-23T11:25:17.629Z,100996.13
2023-10-23T11:27:54.267Z,100994.03
2023-10-23T11:30:48.653Z,100987.34
2023-10-23T11:33:21.171Z,100994.44
2023-10-23T11:35:51.423Z,100990.69
2023-10-23T11:38:26.475Z,101003.97
2023-10-23T11:40:56.624Z,101005.88
2023-10-23T11:43:26.641Z,101007.75
2023-10-23T11:45:56.735Z,101007.75
2023-10-23T11:48:27.125Z,100992.34
2023-10-23T11:50:57.365Z,100989.88
2023-10-23T11:53:35.308Z,100981.75
2023-10-23T11:56:06.241Z,100979.03
2023-10-23T11:58:38.523Z,100978.22
2023-10-23T12:01:10.806Z,100982.78
2023-10-23T12:03:43.775Z,100991.94
2023-10-23T12:06:14.243Z,100998.41
2023-10-23T12:08:44.298Z,100995.69
2023-10-23T12:11:20.489Z,101001.09
2023-10-23T12:13:53.374Z,100995.69
2023-10-23T12:16:26.633Z,100993.81
2023-10-23T12:18:57.252Z,100998.41
2023-10-23T12:21:33.100Z,101002.13
2023-10-23T12:24:03.377Z,101012.94
2023-10-23T12:26:39.325Z,101013.19
2023-10-23T12:29:14.897Z,101019.41
2023-10-23T12:32:01.501Z,101017.75
2023-10-23T12:34:37.832Z,101026.06
2023-10-23T12:37:14.177Z,101032.31
2023-10-23T12:39:44.528Z,101030.66
2023-10-23T12:42:17.413Z,101039.78
2023-10-23T12:44:51.020Z,101034.38
2023-10-23T12:47:26.718Z,101043.56
2023-10-23T12:49:56.913Z,101047.31
2023-10-23T12:52:26.931Z,101041.91
2023-10-23T12:55:03.248Z,101040.22
2023-10-23T12:57:34.125Z,101037.50
2023-10-23T13:00:09.372Z,101048.56
2023-10-23T13:02:42.142Z,101061.84
2023-10-23T13:05:17.846Z,101065.81
2023-10-23T13:07:47.949Z,101069.16
2023-10-23T13:10:18.439Z,101071.44
2023-10-23T13:12:52.543Z,101073.09
2023-10-23T13:15:30.146Z,101070.81
2023-10-23T13:18:02.570Z,101079.13
2023-10-23T13:21:31.046Z,101070.63
2023-10-23T13:23:37.001Z,101076.03
2023-10-23T13:26:13.824Z,101070.19
2023-10-23T13:28:49.360Z,101068.94
2023-10-23T13:31:22.834Z,101071.00
2023-10-23T13:33:55.630Z,101060.81
2023-10-23T13:36:29.086Z,101063.53
2023-10-23T13:39:08.201Z,101063.53
2023-10-23T13:41:38.696Z,101071.44
2023-10-23T13:44:11.772Z,101075.16
2023-10-23T13:46:47.248Z,101076.03
2023-10-23T13:49:17.521Z,101081.63
2023-10-23T13:51:47.918Z,101074.34
2023-10-23T13:54:26.948Z,101084.31
2023-10-23T13:56:57.261Z,101075.75
2023-10-23T13:59:30.218Z,101077.22
2023-10-23T14:02:08.046Z,101072.63
2023-10-23T14:04:40.993Z,101079.72
2023-10-23T14:07:20.555Z,101078.91
2023-10-23T14:09:53.553Z,101084.31
2023-10-23T14:12:43.786Z,101077.03
2023-10-23T14:15:13.961Z,101084.31
2023-10-23T14:17:44.118Z,101071.63
2023-10-23T14:20:17.029Z,101075.56
2023-10-23T14:22:52.803Z,101083.44
2023-10-23T14:25:34.302Z,101088.03
2023-10-23T14:28:04.972Z,101088.84
2023-10-23T14:30:37.774Z,101083.44
2023-10-23T14:33:08.788Z,101085.13
2023-10-23T14:35:39.723Z,101088.66
2023-10-23T14:38:10.130Z,101093.03
2023-10-23T14:40:43.189Z,101103.00
2023-10-23T14:43:13.635Z,101098.44
2023-10-23T14:45:43.757Z,101109.72
2023-10-23T14:48:30.619Z,101102.81
2023-10-23T14:51:03.482Z,101114.25
2023-10-23T14:53:34.439Z,101114.66
2023-10-23T14:56:11.519Z,101113.00
2023-10-23T14:58:44.834Z,101114.25
2023-10-23T15:01:15.841Z,101106.31
2023-10-23T15:03:48.982Z,101115.47
2023-10-23T15:06:19.177Z,101114.84
2023-10-23T15:08:54.771Z,101126.69
2023-10-23T15:11:34.689Z,101130.66
2023-10-23T15:14:14.114Z,101128.81
2023-10-23T15:16:44.297Z,101124.59
2023-10-23T15:19:17.478Z,101130.41
2023-10-23T15:21:47.690Z,101128.31
2023-10-23T15:24:17.663Z,101134.53
2023-10-23T15:26:48.303Z,101137.19
2023-10-23T15:29:27.214Z,101134.47
2023-10-23T15:32:03.544Z,101130.88
2023-10-23T15:34:34.325Z,101121.28
2023-10-23T15:37:04.634Z,101125.88
2023-10-23T15:39:42.743Z,101123.97
2023-10-23T15:42:16.216Z,101113.75
2023-10-23T15:44:46.575Z,101114.56
2023-10-23T15:47:16.689Z,101111.63
2023-10-23T15:49:47.080Z,101113.28
2023-10-23T15:52:27.807Z,101112.19
2023-10-23T15:55:00.913Z,101103.47
2023-10-23T15:57:35.148Z,101101.84
2023-10-23T16:00:16.420Z,101100.19
2023-10-23T16:02:49.772Z,101099.78
2023-10-23T16:05:23.786Z,101090.69
2023-10-23T16:07:57.324Z,101089.00
2023-10-23T16:10:27.711Z,101094.41
2023-10-23T16:12:58.202Z,101092.75
2023-10-23T16:15:28.613Z,101088.38
2023-10-23T16:18:01.229Z,101080.66
2023-10-23T16:20:31.626Z,101074.00
2023-10-23T16:23:04.295Z,101076.72
2023-10-23T16:25:43.408Z,101073.19
2023-10-23T16:28:15.416Z,101068.38
2023-10-23T16:30:46.053Z,101062.56
2023-10-23T16:33:16.274Z,101061.91
2023-10-23T16:35:50.874Z,101059.44
2023-10-23T16:38:22.665Z,101045.31
2023-10-23T16:40:52.746Z,101051.94
2023-10-23T16:43:25.774Z,101050.44
2023-10-23T16:45:56.146Z,101044.38
2023-10-23T16:48:26.340Z,101038.38
2023-10-23T16:50:56.673Z,101037.75
2023-10-23T16:53:26.627Z,101039.78
2023-10-23T16:56:00.804Z,101041.84
2023-10-23T16:58:31.316Z,101037.69
2023-10-23T17:01:06.130Z,101035.22
2023-10-23T17:03:47.442Z,101037.25
2023-10-23T17:06:21.259Z,101045.56
2023-10-23T17:08:54.462Z,101045.09
2023-10-23T17:11:24.772Z,101055.91
2023-10-23T17:13:55.168Z,101047.19
2023-10-23T17:16:28.270Z,101045.50
2023-10-23T17:18:58.662Z,101041.34
2023-10-23T17:21:31.443Z,101037.16
2023-10-23T17:24:05.572Z,101036.56
2023-10-23T17:26:39.421Z,101032.19
2023-10-23T17:29:10.048Z,101029.69
2023-10-23T17:31:40.436Z,101031.56
2023-10-23T17:34:10.518Z,101022.19
2023-10-23T17:36:40.769Z,101016.78
2023-10-23T17:39:11.532Z,101019.88
2023-10-23T17:41:41.708Z,101011.78
2023-10-23T17:44:11.856Z,100999.34
2023-10-23T17:46:42.249Z,101005.13
2023-10-23T17:49:13.278Z,101008.84
2023-10-23T17:51:43.754Z,100996.41
2023-10-23T17:54:15.573Z,101000.13
2023-10-23T17:56:48.707Z,100998.88
2023-10-23T17:59:18.825Z,100998.88
2023-10-23T18:01:49.419Z,101001.75
2023-10-23T18:04:19.726Z,101000.91
2023-10-23T18:06:51.766Z,100999.25
2023-10-23T18:09:22.021Z,101000.28
2023-10-23T18:11:51.983Z,100999.66
2023-10-23T18:14:31.088Z,100998.84
2023-10-23T18:17:01.421Z,100996.28
2023-10-23T18:19:31.825Z,100998.34
2023-10-23T18:22:05.192Z,100986.72
2023-10-23T18:24:35.551Z,100997.34
2023-10-23T18:27:09.898Z,100987.97
2023-10-23T18:29:43.408Z,100989.81
2023-10-23T18:32:13.620Z,100994.56
2023-10-23T18:34:46.042Z,100999.97
2023-10-23T18:37:21.793Z,100992.69
2023-10-23T18:39:52.083Z,100987.72
2023-10-23T18:42:22.410Z,100992.47
2023-10-23T18:44:52.616Z,100989.97
2023-10-23T18:47:22.952Z,100997.88
2023-10-23T18:49:56.009Z,100996.19
2023-10-23T18:52:29.215Z,100992.84
2023-10-23T18:54:59.546Z,100986.63
2023-10-23T18:57:29.547Z,100992.84
2023-10-23T19:00:02.919Z,100988.88
2023-10-23T19:02:33.406Z,100980.81
2023-10-23T19:05:03.512Z,100979.97
2023-10-23T19:07:35.146Z,100982.84
2023-10-23T19:10:06.908Z,100982.84
2023-10-23T19:12:37.451Z,100987.63
2023-10-23T19:15:07.632Z,100977.84
2023-10-23T19:17:41.007Z,100972.47
2023-10-23T19:20:11.712Z,100969.13
2023-10-23T19:22:41.861Z,100973.69
2023-10-23T19:25:12.220Z,100971.81
2023-10-23T19:27:42.438Z,100964.13
2023-10-23T19:30:13.774Z,100966.84
2023-10-23T19:32:44.459Z,100962.47
2023-10-23T19:35:15.120Z,100968.91
2023-10-23T19:37:45.535Z,100962.88
2023-10-23T19:40:15.809Z,100955.81
2023-10-23T19:42:51.339Z,100960.19
2023-10-23T19:45:25.246Z,100961.19
2023-10-23T19:47:55.679Z,100971.97
2023-10-23T19:50:26.042Z,100970.31
2023-10-23T19:52:56.690Z,100964.09
2023-10-23T19:55:43.414Z,100976.75
2023-10-23T19:58:18.854Z,100972.34
2023-10-23T20:00:49.849Z,100974.44
2023-10-23T20:03:25.358Z,100985.22
2023-10-23T20:05:58.601Z,100980.84
2023-10-23T20:08:34.009Z,100986.44
2023-10-23T20:11:04.555Z,100980.22
2023-10-23T20:13:38.588Z,100985.59
2023-10-23T20:16:09.247Z,100994.69
2023-10-23T20:18:41.101Z,100992.00
2023-10-23T20:21:11.632Z,100998.44
2023-10-23T20:23:41.889Z,100993.03
2023-10-23T20:26:15.241Z,100989.69
2023-10-23T20:28:45.864Z,100988.03
2023-10-23T20:31:16.596Z,100996.13
2023-10-23T20:33:47.777Z,100989.91
2023-10-23T20:36:20.986Z,100991.75
2023-10-23T20:38:51.390Z,100993.81
2023-10-23T20:41:22.007Z,100989.44
2023-10-23T20:43:52.149Z,100995.88
2023-10-23T20:46:22.110Z,101002.91
2023-10-23T20:48:52.489Z,101000.22
2023-10-23T20:51:22.861Z,100997.91
2023-10-23T20:53:55.784Z,100997.06
2023-10-23T20:56:25.899Z,100994.38
2023-10-23T20:59:01.966Z,100991.88
2023-10-23T21:01:35.992Z,100989.38
2023-10-23T21:04:06.666Z,100991.25
2023-10-23T21:06:36.574Z,100990.41
2023-10-23T21:09:09.018Z,100989.56
2023-10-23T21:11:39.563Z,100979.84
2023-10-23T21:14:09.573Z,100981.69
2023-10-23T21:16:39.518Z,100991.63
2023-10-23T21:19:09.633Z,100985.56
2023-10-23T21:21:40.028Z,100983.72
2023-10-23T21:24:10.552Z,100984.94
2023-10-23T21:26:40.770Z,100983.28
2023-10-23T21:29:26.122Z,100982.44
2023-10-23T21:31:56.211Z,100988.00
2023-10-23T21:34:26.385Z,100981.78
2023-10-23T21:36:56.660Z,100990.88
2023-10-23T21:39:27.576Z,100993.56
2023-10-23T21:41:59.677Z,100987.34
2023-10-23T21:44:29.690Z,100992.75
2023-10-23T21:47:19.970Z,100981.97
2023-10-23T21:49:50.015Z,100987.34
2023-10-23T21:52:20.052Z,100984.66
2023-10-23T21:54:50.698Z,100984.03
2023-10-23T21:57:23.663Z,100981.34
2023-10-23T21:59:57.529Z,100980.69
2023-10-23T22:02:27.735Z,100991.47
2023-10-23T22:04:57.863Z,100988.78
2023-10-23T22:07:31.084Z,100993.50
2023-10-23T22:10:05.077Z,100989.78
2023-10-23T22:12:35.474Z,100996.22
2023-10-23T22:15:06.003Z,100993.50
2023-10-23T22:17:36.362Z,100992.88
2023-10-23T22:20:12.646Z,100998.25
2023-10-23T22:22:43.244Z,101001.81
2023-10-23T22:25:13.230Z,100999.94
2023-10-23T22:27:43.767Z,100998.25
2023-10-23T22:30:13.918Z,100999.28
2023-10-23T22:32:44.416Z,101000.94
2023-10-23T22:35:14.406Z,101005.94
2023-10-23T22:37:58.682Z,101012.63
2023-10-23T22:40:34.903Z,101016.41
2023-10-23T22:43:05.038Z,101009.63
2023-10-23T22:45:41.370Z,101020.88
2023-10-23T22:48:21.323Z,101029.84
2023-10-23T22:50:51.424Z,101032.13
2023-10-23T22:53:21.779Z,101029.91
2023-10-23T22:55:54.557Z,101037.41
2023-10-23T22:58:30.241Z,101041.56
2023-10-23T23:01:00.870Z,101048.25
2023-10-23T23:03:31.432Z,101047.03
2023-10-23T23:06:06.411Z,101054.09
2023-10-23T23:08:39.214Z,101050.34
2023-10-23T23:11:31.037Z,101052.03
2023-10-23T23:14:01.256Z,101053.69
2023-10-23T23:16:33.008Z,101050.81
2023-10-23T23:19:04.705Z,101053.31
2023-10-23T23:21:38.336Z,101056.66
2023-10-23T23:24:08.895Z,101010.59
2023-10-23T23:26:38.830Z,101060.59
2023-10-23T23:29:08.790Z,101065.44
2023-10-23T23:31:39.511Z,101068.78
2023-10-23T23:34:09.590Z,101080.00
2023-10-23T23:36:39.677Z,101078.78
2023-10-23T23:39:11.218Z,101077.53
2023-10-23T23:41:41.358Z,101084.59
2023-10-23T23:44:11.227Z,101084.59
2023-10-23T23:46:41.351Z,101087.56
2023-10-23T23:49:11.704Z,101093.41
2023-10-23T23:51:41.701Z,101096.78
2023-10-23T23:54:12.036Z,101097.03
2023-10-23T23:56:41.989Z,101096.66
2023-10-23T23:59:12.221Z,101092.53
